Terminal Aerodrome Forecast
Issued by NWS

Home | Current Version | Previous Version | Text Only | Print | Product List | Glossary Off
Versions: 1 2 3 4 5 6 7 8 9 10 11 12 13 14 15

000
FTUS45 KGGW 232320
TAFSDY
TAF
KSDY 232320Z 2400/2424 05008KT P6SM VCSH OVC015
     FM240100 05006KT P6SM OVC020
     FM241300 VRB03KT 6SM BR BKN045=

USA.gov is the U.S. government's official web portal to all federal, state and local government web resources and services.